Time;durP1;ratioP1;P1;durP2;ratioP2;P2;SDS_P1;SDS_P2;PMS_P1;PMS_P2;Temp;Humidity;BMP_temperature;BMP_pressure;BME280_temperature;BME280_humidity;BME280_pressure;Samples;Min_cycle;Max_cycle;Signal;HPM_P1;HPM_P2
2023/05/02 00:02:51;;;;;;;3.40;3.10;;;;;;;16.34;52.43;100212.25;10117033;29;20568;-77
2023/05/02 00:07:54;;;;;;;3.75;3.10;;;;;;;16.25;52.79;100209.50;10119534;29;20078;-71
2023/05/02 00:12:55;;;;;;;3.40;3.10;;;;;;;16.22;52.75;100212.50;10122695;28;20074;-74
2023/05/02 00:17:56;;;;;;;3.83;3.42;;;;;;;16.09;53.02;100201.38;10116022;29;20048;-74
2023/05/02 00:22:58;;;;;;;3.70;3.30;;;;;;;16.16;52.67;100215.84;10113481;29;20171;-73
2023/05/02 00:27:59;;;;;;;4.32;3.97;;;;;;;16.11;52.69;100203.91;10113543;29;20056;-74
2023/05/02 00:33:01;;;;;;;3.63;3.33;;;;;;;16.14;53.08;100212.50;10116503;28;20627;-75
2023/05/02 00:38:02;;;;;;;3.75;3.45;;;;;;;16.15;52.80;100222.22;10122212;29;20070;-74
2023/05/02 00:43:04;;;;;;;4.82;4.32;;;;;;;16.08;53.17;100211.28;10121852;28;20454;-73
2023/05/02 00:48:07;;;;;;;4.53;4.15;;;;;;;16.06;53.62;100221.34;10118986;29;20213;-76
2023/05/02 00:53:09;;;;;;;5.80;4.93;;;;;;;16.05;53.39;100213.47;10150064;29;20116;-75
2023/05/02 00:58:15;;;;;;;5.70;5.20;;;;;;;16.03;53.51;100212.75;10137877;29;20068;-73
2023/05/02 01:03:30;;;;;;;7.50;5.53;;;;;;;16.00;53.65;100223.81;10117374;29;20060;-72
2023/05/02 01:08:39;;;;;;;5.53;5.10;;;;;;;15.93;54.09;100222.75;10122257;28;20071;-72
2023/05/02 01:13:42;;;;;;;6.57;5.88;;;;;;;15.79;54.33;100229.56;10123023;28;20099;-72
2023/05/02 01:18:45;;;;;;;6.80;6.30;;;;;;;15.70;54.59;100237.56;10104170;29;20058;-73
2023/05/02 01:24:05;;;;;;;6.95;6.25;;;;;;;15.63;55.02;100239.16;10122419;28;20062;-73
2023/05/02 01:29:08;;;;;;;7.07;6.38;;;;;;;15.46;55.22;100232.00;10111077;28;20052;-75
2023/05/02 01:34:11;;;;;;;6.33;5.73;;;;;;;15.49;55.40;100243.25;10110575;28;20051;-75
2023/05/02 01:39:26;;;;;;;7.90;7.20;;;;;;;15.37;55.47;100239.97;10098407;29;20052;-74
2023/05/02 01:44:28;;;;;;;;;;;;;;;15.39;55.61;100258.59;10111686;29;20066;-76
2023/05/02 01:49:32;;;;;;;8.27;7.47;;;;;;;15.36;55.82;100270.47;10118425;29;19927;-74
2023/05/02 01:54:35;;;;;;;7.05;6.45;;;;;;;15.35;55.80;100267.94;10115003;29;20652;-71
2023/05/02 01:59:39;;;;;;;8.75;7.95;;;;;;;15.36;56.15;100265.09;10115588;29;20075;-75
2023/05/02 02:04:41;;;;;;;7.95;7.15;;;;;;;15.35;56.26;100274.13;10115245;29;20063;-74
2023/05/02 02:09:43;;;;;;;10.85;9.75;;;;;;;15.30;56.33;100281.00;10120942;28;20559;-71
2023/05/02 02:14:49;;;;;;;9.85;8.95;;;;;;;15.25;56.92;100278.75;10122500;29;20059;-72
2023/05/02 02:19:55;;;;;;;11.23;10.23;;;;;;;15.22;56.74;100284.41;10119158;28;20049;-74
2023/05/02 02:24:58;;;;;;;12.80;11.55;;;;;;;15.18;57.13;100280.38;10115847;29;20141;-75
2023/05/02 02:29:59;;;;;;;11.77;10.20;;;;;;;15.15;57.49;100299.44;10122377;29;20059;-72
2023/05/02 02:35:02;;;;;;;13.40;12.20;;;;;;;15.11;57.25;100296.22;10121803;28;20082;-71
2023/05/02 02:40:17;;;;;;;14.13;12.75;;;;;;;14.99;57.81;100305.47;10125607;28;20059;-74
2023/05/02 02:45:22;;;;;;;13.27;11.93;;;;;;;15.04;58.24;100308.53;10113360;29;20683;-74
2023/05/02 02:50:30;;;;;;;;;;;;;;;15.03;58.47;100312.22;10124697;29;20530;-72
2023/05/02 02:55:52;;;;;;;14.15;12.80;;;;;;;15.01;58.86;100311.50;10121146;29;19962;-74
2023/05/02 03:00:55;;;;;;;14.25;13.00;;;;;;;14.92;58.70;100309.72;10134526;29;20052;-77
2023/05/02 03:05:56;;;;;;;14.40;13.00;;;;;;;14.91;58.71;100310.75;10128246;28;20057;-71
2023/05/02 03:10:58;;;;;;;14.15;12.82;;;;;;;14.86;58.76;100319.22;10165006;28;20044;-74
2023/05/02 03:16:29;;;;;;;14.93;13.52;;;;;;;14.88;59.01;100324.41;10204704;29;20116;-75
2023/05/02 03:21:33;;;;;;;14.18;12.88;;;;;;;14.83;59.39;100331.09;10129997;29;20144;-73
2023/05/02 03:26:34;;;;;;;14.45;12.82;;;;;;;14.85;59.44;100339.81;10131132;28;20053;-74
2023/05/02 03:31:36;;;;;;;13.60;11.52;;;;;;;14.88;59.45;100354.75;10146232;29;20056;-73
2023/05/02 03:36:37;;;;;;;13.18;11.73;;;;;;;14.90;59.90;100354.63;10144941;29;20071;-75
2023/05/02 03:41:39;;;;;;;14.93;13.40;;;;;;;14.91;59.84;100359.81;10111452;29;20052;-74
2023/05/02 03:46:40;;;;;;;14.98;13.57;;;;;;;14.90;59.70;100359.97;10117772;29;20048;-72
2023/05/02 03:51:42;;;;;;;15.23;13.68;;;;;;;14.92;59.45;100379.41;10121197;29;20552;-76
2023/05/02 03:56:43;;;;;;;16.63;15.02;;;;;;;14.81;59.30;100372.44;10105562;29;20063;-73
2023/05/02 04:01:49;;;;;;;15.45;13.75;;;;;;;14.82;59.15;100380.31;10131975;29;20044;-73
2023/05/02 04:06:50;;;;;;;15.02;13.65;;;;;;;14.85;59.18;100396.09;10143736;28;20063;-75
2023/05/02 04:11:52;;;;;;;14.95;13.55;;;;;;;14.80;59.15;100389.47;10160128;28;20147;-75
2023/05/02 04:16:54;;;;;;;14.13;12.73;;;;;;;14.73;59.60;100397.28;10157334;29;20129;-73
2023/05/02 04:21:55;;;;;;;16.17;13.45;;;;;;;14.69;59.57;100401.25;10147914;28;20054;-73
2023/05/02 04:26:56;;;;;;;15.88;14.32;;;;;;;14.65;59.58;100407.88;10118563;29;20067;-74
2023/05/02 04:31:58;;;;;;;15.27;13.75;;;;;;;14.70;59.64;100421.69;10116565;28;20578;-73
2023/05/02 04:37:00;;;;;;;15.43;13.93;;;;;;;14.73;59.64;100437.47;10120227;28;20097;-73
2023/05/02 04:42:02;;;;;;;15.15;13.75;;;;;;;14.75;59.79;100448.88;10116281;29;20172;-72
2023/05/02 04:47:04;;;;;;;14.60;13.20;;;;;;;14.83;58.89;100462.41;10121771;28;20071;-72
2023/05/02 04:52:05;;;;;;;14.43;12.95;;;;;;;14.64;59.60;100463.28;10116409;29;20552;-72
2023/05/02 04:57:08;;;;;;;15.95;14.30;;;;;;;14.56;59.91;100473.00;10119214;29;20555;-74
2023/05/02 05:02:11;;;;;;;16.52;14.82;;;;;;;14.72;59.32;100486.69;10102869;29;20429;-70
2023/05/02 05:07:13;;;;;;;19.70;17.65;;;;;;;14.60;59.16;100487.81;10104937;29;20173;-73
2023/05/02 05:12:14;;;;;;;22.27;20.00;;;;;;;14.51;59.87;100492.19;10109408;29;20064;-72
2023/05/02 05:17:16;;;;;;;23.55;21.15;;;;;;;14.54;60.20;100505.28;10103218;29;21274;-75
2023/05/02 05:22:18;;;;;;;23.25;20.95;;;;;;;14.59;60.33;100508.41;10106019;29;20578;-72
2023/05/02 05:27:20;;;;;;;26.10;23.30;;;;;;;14.65;59.91;100518.59;10106130;29;21502;-74
2023/05/02 05:32:23;;;;;;;24.42;22.00;;;;;;;14.63;59.77;100530.41;10104200;29;20138;-71
2023/05/02 05:37:24;;;;;;;24.38;21.95;;;;;;;14.68;59.70;100533.50;10116567;29;20052;-74
2023/05/02 05:42:26;;;;;;;26.17;23.52;;;;;;;14.62;59.42;100542.13;10112683;29;20063;-70
2023/05/02 05:47:27;;;;;;;25.65;22.95;;;;;;;14.54;59.41;100553.50;10109852;29;20044;-73
2023/05/02 05:52:29;;;;;;;25.30;22.48;;;;;;;14.63;59.22;100573.28;10115969;29;20090;-74
2023/05/02 05:57:30;;;;;;;25.95;23.08;;;;;;;14.72;59.12;100577.78;10134887;29;20605;-71
2023/05/02 06:02:32;;;;;;;25.30;22.80;;;;;;;14.62;59.86;100566.22;10132443;28;20491;-71
2023/05/02 06:07:33;;;;;;;24.83;22.33;;;;;;;14.74;59.67;100572.28;10113118;28;20063;-72
2023/05/02 06:12:35;;;;;;;24.33;21.70;;;;;;;14.79;59.76;100586.13;10105286;28;20054;-69
2023/05/02 06:17:36;;;;;;;24.17;21.77;;;;;;;14.95;59.63;100582.81;10103660;29;20123;-72
2023/05/02 06:22:38;;;;;;;23.55;20.23;;;;;;;14.93;58.98;100577.59;10102233;28;20067;-74
2023/05/02 06:27:40;;;;;;;22.83;20.42;;;;;;;14.91;58.71;100587.63;10102519;29;20052;-70
2023/05/02 06:32:43;;;;;;;22.45;20.15;;;;;;;14.89;58.79;100607.53;10107528;29;20952;-73
2023/05/02 06:37:44;;;;;;;21.85;19.05;;;;;;;14.93;58.63;100616.97;10111460;29;20078;-70
2023/05/02 06:42:46;;;;;;;23.00;20.55;;;;;;;14.90;58.77;100628.00;10109822;29;20064;-72
2023/05/02 06:47:47;;;;;;;21.25;19.02;;;;;;;15.03;58.60;100621.34;10109130;29;20059;-72
2023/05/02 06:52:48;;;;;;;22.92;20.00;;;;;;;15.08;58.43;100626.25;10116105;28;20131;-68
2023/05/02 06:57:51;;;;;;;23.08;20.70;;;;;;;15.16;58.24;100634.44;10132661;29;20147;-73
2023/05/02 07:02:53;;;;;;;24.98;22.38;;;;;;;15.25;58.24;100637.25;10123766;28;20080;-75
2023/05/02 07:07:55;;;;;;;22.75;20.35;;;;;;;15.42;57.69;100639.19;10113705;28;21179;-74
2023/05/02 07:12:56;;;;;;;21.55;17.77;;;;;;;15.55;57.40;100647.75;10110619;29;20066;-71
2023/05/02 07:17:57;;;;;;;20.85;18.27;;;;;;;15.57;56.96;100647.59;10114474;29;20103;-72
2023/05/02 07:22:59;;;;;;;19.00;17.10;;;;;;;15.62;56.28;100655.22;10115545;28;20085;-69
2023/05/02 07:28:01;;;;;;;18.27;16.42;;;;;;;15.59;56.04;100666.25;10126555;29;20063;-72
2023/05/02 07:33:02;;;;;;;19.48;17.30;;;;;;;15.51;56.65;100667.81;10134498;29;20180;-73
2023/05/02 07:38:04;;;;;;;19.50;17.25;;;;;;;15.63;56.87;100673.84;10111235;29;20081;-72
2023/05/02 07:43:05;;;;;;;19.13;15.93;;;;;;;15.58;55.47;100677.97;10108878;28;20077;-75
2023/05/02 07:48:08;;;;;;;18.03;15.83;;;;;;;15.56;55.01;100678.09;10109718;29;20091;-71
2023/05/02 07:53:10;;;;;;;17.13;15.25;;;;;;;15.42;55.77;100675.88;10106303;29;20063;-74
2023/05/02 07:58:11;;;;;;;18.63;16.80;;;;;;;15.41;56.46;100687.59;10105992;29;20063;-73
2023/05/02 08:03:13;;;;;;;19.25;16.98;;;;;;;15.51;56.77;100699.16;10107142;29;20491;-73
2023/05/02 08:08:15;;;;;;;19.40;17.40;;;;;;;15.38;56.12;100699.47;10110697;29;20135;-74
2023/05/02 08:13:16;;;;;;;19.05;17.02;;;;;;;15.28;56.99;100706.69;10116683;29;20056;-74
2023/05/02 08:18:18;;;;;;;15.07;13.50;;;;;;;15.37;55.84;100705.81;10112010;29;20579;-74
2023/05/02 08:23:19;;;;;;;16.63;14.82;;;;;;;15.31;56.24;100712.63;10107090;29;20052;-72
2023/05/02 08:28:21;;;;;;;17.15;13.73;;;;;;;15.38;55.71;100708.34;10105662;29;20057;-71
2023/05/02 08:33:23;;;;;;;16.48;14.73;;;;;;;15.55;54.93;100720.19;10107962;28;20064;-72
2023/05/02 08:38:25;;;;;;;15.52;12.45;;;;;;;15.71;55.05;100726.78;10098238;29;20111;-75
2023/05/02 08:43:28;;;;;;;15.52;13.05;;;;;;;15.79;54.65;100726.91;10095683;29;20051;-71
2023/05/02 08:48:31;;;;;;;18.00;14.57;;;;;;;15.70;54.91;100743.88;10097962;29;20454;-74
2023/05/02 08:53:36;;;;;;;19.13;15.57;;;;;;;15.65;55.03;100743.47;10100741;29;20431;-71
2023/05/02 08:58:39;;;;;;;18.35;14.63;;;;;;;15.30;55.31;100747.63;10101956;29;20048;-72
2023/05/02 09:03:42;;;;;;;17.20;15.35;;;;;;;15.16;56.06;100755.09;10102362;28;20082;-73
2023/05/02 09:08:49;;;;;;;16.85;13.75;;;;;;;15.43;56.10;100761.56;10105440;29;20058;-74
2023/05/02 09:13:51;;;;;;;15.15;12.38;;;;;;;15.75;54.74;100768.47;10108520;28;20412;-72
2023/05/02 09:18:57;;;;;;;16.20;12.90;;;;;;;15.89;54.43;100777.91;10112375;29;20483;-70
2023/05/02 09:23:59;;;;;;;15.05;13.32;;;;;;;16.02;54.47;100774.91;10117428;29;20060;-72
2023/05/02 09:29:02;;;;;;;16.90;13.52;;;;;;;15.96;53.93;100784.41;10121372;29;20996;-71
2023/05/02 09:34:12;;;;;;;17.45;13.77;;;;;;;16.06;53.38;100770.94;10109547;28;20108;-75
2023/05/02 09:39:16;;;;;;;16.55;12.93;;;;;;;16.52;52.41;100774.53;10109443;29;20060;-72
2023/05/02 09:44:20;;;;;;;13.70;11.10;;;;;;;16.76;50.95;100773.97;10112503;28;20045;-71
2023/05/02 09:49:39;;;;;;;12.88;9.07;;;;;;;17.13;49.82;100774.91;10109915;29;20063;-70
2023/05/02 09:54:41;;;;;;;10.13;8.73;;;;;;;17.70;47.84;100776.34;10109958;29;20095;-75
2023/05/02 09:59:56;;;;;;;13.40;10.65;;;;;;;17.47;48.09;100775.03;10108604;29;20588;-72
2023/05/02 10:05:00;;;;;;;11.98;8.65;;;;;;;17.69;48.49;100780.06;10107589;29;20132;-70
2023/05/02 10:10:02;;;;;;;11.48;9.30;;;;;;;18.30;47.53;100768.34;10113421;29;20717;-71
2023/05/02 10:15:06;;;;;;;9.93;8.88;;;;;;;18.80;45.64;100771.22;10107665;29;20071;-78
2023/05/02 10:20:14;;;;;;;9.38;7.90;;;;;;;18.56;46.66;100780.91;10109614;29;20059;-75
2023/05/02 10:25:17;;;;;;;8.13;6.78;;;;;;;17.76;48.13;100781.09;10118453;29;20052;-72
2023/05/02 10:30:19;;;;;;;9.50;8.05;;;;;;;18.09;47.78;100778.66;10135267;29;21470;-73
2023/05/02 10:35:23;;;;;;;10.90;7.57;;;;;;;18.40;46.77;100770.91;10138355;29;21173;-79
2023/05/02 10:40:25;;;;;;;10.23;8.52;;;;;;;19.62;44.27;100757.78;10162955;28;20044;-79
2023/05/02 10:45:34;;;;;;;8.23;7.43;;;;;;;19.71;43.72;100766.72;10181533;28;20031;-73
2023/05/02 10:50:46;;;;;;;7.50;6.70;;;;;;;19.97;43.30;100766.56;10171157;29;20056;-74
2023/05/02 10:56:10;;;;;;;6.80;6.10;;;;;;;18.92;44.27;100767.22;10158772;29;20043;-73
2023/05/02 11:01:25;;;;;;;7.38;6.60;;;;;;;19.92;43.01;100761.66;10114804;28;20051;-74
2023/05/02 11:06:33;;;;;;;6.13;5.53;;;;;;;21.25;40.31;100732.94;10130300;28;20622;-74
2023/05/02 11:11:42;;;;;;;4.65;4.22;;;;;;;21.95;38.94;100727.38;10145321;28;20546;-73
2023/05/02 11:17:10;;;;;;;4.97;4.32;;;;;;;21.79;37.78;100740.06;10117018;28;20441;-74
2023/05/02 11:22:22;;;;;;;4.63;2.97;;;;;;;21.85;37.18;100736.63;10157504;29;20040;-72
2023/05/02 11:27:30;;;;;;;2.35;1.95;;;;;;;22.16;37.06;100734.75;10169169;28;20051;-73
2023/05/02 11:32:44;;;;;;;1.75;1.52;;;;;;;22.53;35.27;100731.09;10166454;28;20143;-74
2023/05/02 11:37:58;;;;;;;3.13;2.28;;;;;;;23.33;33.75;100731.09;10144770;28;20052;-75
2023/05/02 11:43:10;;;;;;;2.33;2.10;;;;;;;22.52;36.13;100715.84;10142083;28;20052;-72
2023/05/02 11:48:15;;;;;;;3.43;1.70;;;;;;;21.71;34.81;100718.50;10146758;28;20060;-73
2023/05/02 11:53:28;;;;;;;1.48;1.27;;;;;;;21.51;36.30;100726.28;10143869;28;20096;-72
2023/05/02 11:58:32;;;;;;;2.47;1.45;;;;;;;21.31;36.91;100720.53;10136253;28;20501;-72
2023/05/02 12:03:33;;;;;;;2.08;1.83;;;;;;;21.13;36.88;100729.81;10150760;28;20090;-72
2023/05/02 12:08:36;;;;;;;2.60;2.20;;;;;;;20.85;37.36;100737.63;10133970;28;20052;-74
2023/05/02 12:13:47;;;;;;;2.17;1.80;;;;;;;20.49;37.92;100739.00;10155717;29;20044;-73
2023/05/02 12:18:49;;;;;;;2.55;1.90;;;;;;;20.17;38.55;100744.53;10117839;29;20067;-74
2023/05/02 12:23:51;;;;;;;2.70;2.25;;;;;;;19.45;39.63;100746.16;10117530;29;20048;-72
2023/05/02 12:28:53;;;;;;;2.15;1.90;;;;;;;19.64;40.10;100750.38;10156936;29;20060;-73
2023/05/02 12:33:56;;;;;;;3.83;2.60;;;;;;;19.55;39.28;100754.09;10159169;28;20044;-74
2023/05/02 12:38:58;;;;;;;3.95;2.58;;;;;;;19.46;40.59;100755.13;10178254;29;20208;-74
2023/05/02 12:44:01;;;;;;;3.65;3.00;;;;;;;19.83;39.42;100748.34;10168791;28;20464;-73
2023/05/02 12:49:10;;;;;;;2.55;2.35;;;;;;;20.49;38.70;100754.34;10156355;28;20066;-73
2023/05/02 12:54:19;;;;;;;3.88;2.50;;;;;;;21.09;37.59;100755.56;10152628;28;20527;-74
2023/05/02 12:59:28;;;;;;;2.78;2.47;;;;;;;21.48;36.70;100754.56;10145193;28;20067;-71
2023/05/02 13:04:38;;;;;;;4.57;2.40;;;;;;;21.36;36.60;100772.25;10130862;28;20106;-72
2023/05/02 13:09:40;;;;;;;3.63;2.75;;;;;;;21.28;37.48;100769.63;10140566;29;20047;-72
2023/05/02 13:14:41;;;;;;;3.30;2.80;;;;;;;20.95;38.52;100772.56;10137782;29;20160;-74
2023/05/02 13:19:42;;;;;;;3.05;2.75;;;;;;;20.66;38.33;100783.03;10102209;28;20111;-71
2023/05/02 13:24:54;;;;;;;3.58;2.90;;;;;;;20.39;38.94;100783.50;10100130;29;20060;-70
2023/05/02 13:29:56;;;;;;;5.07;3.15;;;;;;;20.07;38.98;100782.56;10101739;29;20351;-71
2023/05/02 13:34:57;;;;;;;3.45;3.15;;;;;;;19.88;40.62;100783.81;10106386;29;20059;-72
2023/05/02 13:39:59;;;;;;;3.20;2.83;;;;;;;19.41;40.72;100777.19;10102619;29;20067;-71
2023/05/02 13:45:05;;;;;;;4.60;3.38;;;;;;;19.20;41.10;100780.41;10112448;29;20071;-70
2023/05/02 13:50:07;;;;;;;3.13;2.83;;;;;;;18.77;41.66;100785.88;10105594;29;20060;-69
2023/05/02 13:55:09;;;;;;;4.72;3.60;;;;;;;18.83;41.78;100785.19;10107194;28;20602;-71
2023/05/02 14:00:10;;;;;;;2.85;2.55;;;;;;;18.96;41.32;100773.97;10150591;29;21065;-73
2023/05/02 14:05:12;;;;;;;3.65;2.97;;;;;;;19.02;40.53;100776.00;10167278;28;20079;-72
2023/05/02 14:10:13;;;;;;;4.47;2.95;;;;;;;19.18;41.14;100793.22;10121204;29;20551;-70
2023/05/02 14:15:15;;;;;;;3.40;3.10;;;;;;;19.36;40.44;100779.56;10113845;28;20527;-72
2023/05/02 14:20:16;;;;;;;3.42;3.08;;;;;;;19.50;38.82;100780.75;10114546;28;20044;-72
2023/05/02 14:25:19;;;;;;;5.47;3.78;;;;;;;19.29;39.31;100779.41;10111823;29;20080;-73
2023/05/02 14:30:20;;;;;;;8.32;7.32;;;;;;;19.33;39.77;100775.34;10116684;29;20507;-70
2023/05/02 14:35:22;;;;;;;3.88;3.47;;;;;;;19.40;39.21;100779.06;10115741;29;20044;-71
2023/05/02 14:40:23;;;;;;;3.80;3.40;;;;;;;19.25;38.85;100783.47;10116629;28;20127;-73
2023/05/02 14:45:25;;;;;;;5.63;3.65;;;;;;;19.38;38.71;100786.50;10112644;29;20056;-72
2023/05/02 14:50:26;;;;;;;4.43;3.78;;;;;;;19.38;39.43;100794.59;10132078;29;20052;-73
2023/05/02 14:55:28;;;;;;;4.03;3.10;;;;;;;18.68;39.74;100798.47;10126031;29;20043;-72
2023/05/02 15:00:29;;;;;;;3.88;3.58;;;;;;;18.79;39.40;100810.81;10127116;29;20131;-71
2023/05/02 15:05:31;;;;;;;4.20;3.80;;;;;;;18.73;38.97;100801.53;10119397;29;20195;-73
2023/05/02 15:10:38;;;;;;;4.63;3.78;;;;;;;18.59;39.36;100815.63;10120336;29;20420;-71
2023/05/02 15:15:40;;;;;;;4.25;3.65;;;;;;;18.52;40.59;100814.59;10120018;29;20064;-73
2023/05/02 15:20:43;;;;;;;4.60;4.20;;;;;;;18.50;40.53;100820.13;10129526;28;20598;-72
2023/05/02 15:25:44;;;;;;;6.67;5.97;;;;;;;18.18;40.74;100824.34;10136459;29;20138;-74
2023/05/02 15:30:47;;;;;;;6.05;5.43;;;;;;;18.14;41.51;100833.75;10139754;28;20054;-72
2023/05/02 15:35:54;;;;;;;6.60;5.53;;;;;;;18.12;41.36;100835.78;10139401;28;20086;-71
2023/05/02 15:40:58;;;;;;;5.25;4.85;;;;;;;18.11;41.29;100844.03;10134261;29;20056;-73
2023/05/02 15:45:59;;;;;;;4.93;3.78;;;;;;;18.08;40.99;100841.63;10127740;29;20131;-73
2023/05/02 15:51:01;;;;;;;4.68;4.28;;;;;;;18.12;41.28;100851.06;10125098;28;20075;-72
2023/05/02 15:56:06;;;;;;;4.03;3.60;;;;;;;18.10;40.44;100842.31;10121129;28;20060;-71
2023/05/02 16:01:08;;;;;;;5.32;3.40;;;;;;;18.30;40.25;100854.56;10119570;28;20460;-72
2023/05/02 16:06:10;;;;;;;6.10;3.40;;;;;;;17.82;40.06;100856.75;10112132;28;20588;-70
2023/05/02 16:11:11;;;;;;;4.13;3.15;;;;;;;17.85;40.30;100858.28;10114784;29;20047;-71
2023/05/02 16:16:12;;;;;;;3.25;2.70;;;;;;;18.19;39.99;100865.59;10119380;28;20059;-70
2023/05/02 16:21:14;;;;;;;3.95;3.20;;;;;;;18.31;38.96;100869.72;10114066;28;20115;-70
2023/05/02 16:26:15;;;;;;;4.47;3.40;;;;;;;18.32;39.07;100866.03;10114208;28;20067;-72
2023/05/02 16:31:17;;;;;;;3.67;3.38;;;;;;;18.12;39.53;100867.25;10113456;29;20267;-72
2023/05/02 16:36:18;;;;;;;4.05;3.20;;;;;;;18.08;39.44;100866.72;10120477;28;20054;-72
2023/05/02 16:41:20;;;;;;;3.92;3.53;;;;;;;17.98;39.86;100866.81;10122762;28;20143;-69
2023/05/02 16:46:21;;;;;;;4.43;3.45;;;;;;;17.81;40.71;100867.66;10122562;29;20795;-73
2023/05/02 16:51:23;;;;;;;4.88;4.38;;;;;;;17.69;40.38;100882.38;10120730;29;20519;-70
2023/05/02 16:56:24;;;;;;;7.93;5.07;;;;;;;17.72;41.75;100879.38;10123647;28;20050;-68
2023/05/02 17:01:25;;;;;;;5.28;4.20;;;;;;;17.67;42.91;100875.28;10129983;28;20110;-72
2023/05/02 17:06:27;;;;;;;4.80;4.22;;;;;;;17.63;41.11;100873.91;10135665;29;20062;-73
2023/05/02 17:11:28;;;;;;;6.07;3.58;;;;;;;17.60;41.51;100890.38;10127315;29;20063;-72
2023/05/02 17:16:30;;;;;;;4.40;3.00;;;;;;;17.52;42.58;100895.69;10142269;28;20334;-71
2023/05/02 17:21:32;;;;;;;4.00;3.60;;;;;;;17.49;43.08;100899.53;10134644;29;20059;-72
2023/05/02 17:26:34;;;;;;;4.15;2.95;;;;;;;17.42;43.54;100906.50;10111782;29;20071;-71
2023/05/02 17:31:36;;;;;;;4.28;3.38;;;;;;;17.34;42.90;100919.03;10119819;28;20080;-73
2023/05/02 17:36:40;;;;;;;3.38;2.67;;;;;;;17.24;42.98;100919.94;10119096;29;20060;-73
2023/05/02 17:41:42;;;;;;;3.50;2.78;;;;;;;17.18;43.09;100922.41;10114374;28;20200;-72
2023/05/02 17:46:43;;;;;;;5.07;2.88;;;;;;;16.91;43.35;100937.53;10114469;29;20124;-70
2023/05/02 17:51:45;;;;;;;3.33;2.83;;;;;;;16.78;45.53;100935.13;10114750;29;20584;-72
2023/05/02 17:56:46;;;;;;;3.75;2.88;;;;;;;16.58;46.84;100937.03;10116126;28;20068;-73
2023/05/02 18:01:51;;;;;;;3.42;2.53;;;;;;;16.47;47.44;100951.50;10117176;29;20056;-71
2023/05/02 18:06:53;;;;;;;3.35;2.42;;;;;;;16.24;47.62;100959.03;10116268;28;20527;-73
2023/05/02 18:11:57;;;;;;;3.22;2.92;;;;;;;16.11;47.64;100964.72;10112926;28;20068;-72
2023/05/02 18:16:58;;;;;;;2.58;2.38;;;;;;;16.01;47.34;100955.81;10117928;29;20130;-73
2023/05/02 18:21:59;;;;;;;2.63;2.35;;;;;;;15.89;47.91;100969.34;10115472;29;20067;-72
2023/05/02 18:27:01;;;;;;;2.78;2.50;;;;;;;15.74;47.95;100976.94;10113488;28;20088;-72
2023/05/02 18:32:03;;;;;;;3.00;2.80;;;;;;;15.66;48.29;100984.00;10109280;29;20056;-70
2023/05/02 18:37:05;;;;;;;4.63;2.70;;;;;;;15.47;48.81;100984.81;10112689;28;20063;-73
2023/05/02 18:42:07;;;;;;;3.55;2.60;;;;;;;15.46;49.04;101000.06;10114704;29;20100;-71
2023/05/02 18:47:08;;;;;;;4.60;2.60;;;;;;;15.35;49.09;100995.63;10108001;29;20136;-71
2023/05/02 18:52:10;;;;;;;4.13;3.00;;;;;;;15.19;49.15;101003.34;10106079;29;20056;-71
2023/05/02 18:57:12;;;;;;;4.20;3.20;;;;;;;15.09;49.28;101019.41;10107999;28;20060;-72
2023/05/02 19:02:14;;;;;;;5.53;3.25;;;;;;;15.00;49.55;101025.59;10108608;29;20547;-71
2023/05/02 19:07:15;;;;;;;4.30;3.08;;;;;;;14.91;49.30;101035.28;10107899;29;20048;-69
2023/05/02 19:12:17;;;;;;;3.83;2.70;;;;;;;14.76;49.58;101045.47;10108830;29;20068;-70
2023/05/02 19:17:18;;;;;;;4.80;3.00;;;;;;;14.58;50.29;101057.75;10114566;29;20064;-69
2023/05/02 19:22:21;;;;;;;4.15;3.67;;;;;;;14.47;50.57;101062.16;10109266;28;20064;-73
2023/05/02 19:27:22;;;;;;;5.63;3.50;;;;;;;14.36;50.92;101075.59;10100630;29;20066;-70
2023/05/02 19:32:24;;;;;;;5.43;4.47;;;;;;;14.26;51.02;101086.25;10105876;29;20063;-70
2023/05/02 19:37:28;;;;;;;6.25;3.25;;;;;;;14.15;51.10;101084.44;10100229;29;20055;-71
2023/05/02 19:42:29;;;;;;;;;;;;;;;14.02;51.03;101098.97;10062810;29;20139;-71
2023/05/02 19:47:31;;;;;;;5.45;3.47;;;;;;;14.00;50.44;101099.09;10065768;29;19950;-71
2023/05/02 19:52:33;;;;;;;5.13;3.50;;;;;;;13.94;50.88;101113.81;10066367;29;20666;-67
2023/05/02 19:57:35;;;;;;;3.10;2.75;;;;;;;13.83;49.71;101115.69;10064955;29;20056;-69
2023/05/02 20:02:36;;;;;;;3.25;2.95;;;;;;;13.70;48.65;101116.63;10060997;29;20087;-69
2023/05/02 20:07:38;;;;;;;5.10;3.15;;;;;;;13.60;48.00;101123.69;10062334;29;20057;-69
2023/05/02 20:12:43;;;;;;;5.80;3.10;;;;;;;13.51;47.67;101119.06;10063984;29;20204;-69
2023/05/02 20:17:46;;;;;;;5.45;3.28;;;;;;;13.50;47.72;101130.78;10070239;29;20053;-69
2023/05/02 20:22:47;;;;;;;4.50;2.60;;;;;;;13.39;47.60;101128.91;10072498;29;20060;-70
2023/05/02 20:27:49;;;;;;;4.47;2.75;;;;;;;13.18;47.83;101134.09;10064148;29;21460;-72
2023/05/02 20:32:51;;;;;;;5.40;3.08;;;;;;;13.14;47.81;101146.00;10079746;29;20120;-71
2023/05/02 20:37:53;;;;;;;7.07;3.47;;;;;;;13.13;47.76;101155.00;10084224;29;20143;-73
2023/05/02 20:42:54;;;;;;;5.72;3.65;;;;;;;13.09;48.05;101160.56;10091636;29;20053;-72
2023/05/02 20:47:55;;;;;;;7.10;3.22;;;;;;;13.02;48.15;101159.34;10093114;29;20057;-73
2023/05/02 20:52:57;;;;;;;5.65;3.35;;;;;;;12.97;48.49;101166.88;10089666;29;20512;-69
2023/05/02 20:57:58;;;;;;;5.18;3.17;;;;;;;12.92;48.39;101163.66;10078603;29;20054;-69
2023/05/02 21:02:59;;;;;;;4.15;2.92;;;;;;;12.91;48.94;101162.00;10072808;29;20061;-69
2023/05/02 21:08:01;;;;;;;5.75;3.17;;;;;;;12.76;49.18;101173.81;10077187;29;20075;-67
2023/05/02 21:13:02;;;;;;;4.50;3.15;;;;;;;12.66;49.19;101182.53;10070153;29;20449;-70
2023/05/02 21:18:04;;;;;;;5.97;3.53;;;;;;;12.59;49.70;101183.94;10070841;29;20578;-68
2023/05/02 21:23:09;;;;;;;4.82;3.20;;;;;;;12.53;49.75;101179.06;10067847;29;20722;-68
2023/05/02 21:28:11;;;;;;;6.07;3.63;;;;;;;12.45;49.26;101179.63;10072256;29;20072;-68
2023/05/02 21:33:16;;;;;;;3.90;3.35;;;;;;;12.33;49.89;101184.03;10068402;29;20060;-68
2023/05/02 21:38:17;;;;;;;6.90;3.42;;;;;;;12.34;49.66;101188.44;10063647;29;20056;-66
2023/05/02 21:43:18;;;;;;;4.60;3.50;;;;;;;12.23;49.61;101180.34;10065117;29;20167;-67
2023/05/02 21:48:20;;;;;;;7.30;4.10;;;;;;;12.18;49.79;101198.50;10073889;29;20493;-69
2023/05/02 21:53:22;;;;;;;5.50;3.38;;;;;;;12.09;50.02;101191.19;10076747;29;20551;-71
2023/05/02 21:58:24;;;;;;;5.78;3.85;;;;;;;12.04;49.95;101204.84;10069136;29;21471;-69
2023/05/02 22:03:26;;;;;;;6.28;4.07;;;;;;;11.96;49.99;101192.03;10069560;29;20754;-67
2023/05/02 22:08:27;;;;;;;5.43;3.90;;;;;;;11.97;50.06;101204.41;10067941;29;20159;-68
2023/05/02 22:13:29;;;;;;;6.53;3.75;;;;;;;11.71;50.11;101184.03;10067831;29;20731;-69
2023/05/02 22:18:30;;;;;;;5.18;3.55;;;;;;;11.71;50.03;101192.91;10070611;29;20061;-69
2023/05/02 22:23:31;;;;;;;4.90;4.15;;;;;;;11.70;50.25;101201.03;10072292;29;20098;-68
2023/05/02 22:28:34;;;;;;;5.57;3.88;;;;;;;11.66;50.24;101201.25;10071331;29;20056;-70
2023/05/02 22:33:35;;;;;;;7.82;3.95;;;;;;;11.53;50.54;101205.72;10072671;29;20053;-69
2023/05/02 22:38:40;;;;;;;6.15;3.72;;;;;;;11.42;51.02;101202.94;10075437;29;20117;-71
2023/05/02 22:43:41;;;;;;;6.45;4.00;;;;;;;11.36;50.92;101198.03;10072966;29;20143;-66
2023/05/02 22:48:43;;;;;;;5.72;3.78;;;;;;;11.29;50.80;101193.13;10093557;29;20057;-69
2023/05/02 22:53:44;;;;;;;4.28;3.65;;;;;;;11.22;51.08;101207.81;10085078;29;20065;-70
2023/05/02 22:58:48;;;;;;;7.47;3.80;;;;;;;11.19;50.98;101221.34;10076303;29;20073;-70
2023/05/02 23:03:50;;;;;;;4.90;4.25;;;;;;;11.14;51.02;101220.81;10077251;29;20056;-70